Accueil
METAR-TAF:

METAR-TAF

Aéroports :

Aéroport international de Tabarka-Aïn Draham

Tabarka, Tunisie

latitude: 36-57N, longitude: 008-45E, altitude: 20 m

Observation

Le bulletin a été fait il y a 35 minutes, à 04:00 UTC
Vent 7 kt de ouest/sud-ouest
Température 15°C
Humidité 82%
Pression 1018 hPa
Visibilité 10 km ou plus
Nuages épars à une hauteur de 2000 ft

METAR: DTKA 300400Z 24007KT 9999 SCT020 15/12 Q1018

Heure: 05:35 (04:35 UTC)

Prévision

Le bulletin a été fait il y a 1 heure et 35 minutes, à 03:00 UTC
Prévision valable du 30 à 04 UTC au 30 à 13 UTC
Vent 7 kt de ouest/sud-ouest
Visibilité: 8000 m
Nuages épars à une hauteur de 2000 ft

TAF: DTKA 300300Z 3004/3013 24007KT 8000 SCT020

Observations et prévisions météorologiques de plus de 4000 aéroports (messages METAR et TAF).

Les stations disponibles sont représentées par des disques jaunes et rouges sur la carte.

Passer la souris dessus pour voir le nom de la station.

Cliquer dessus pour voir les observations et prévisions météorologiques.

Pour changer de carte: cliquez sur les boutons verts avec une croix noire pour zoomer, sur le bouton vert avec un tiret pour effectuer un zoom arrière, ou sur les flèches vertes pour les cartes adjacentes.


METAR-TAF: